Savanna, IL

6:25 AM CST on December 21, 2014 (GMT -0600)
Tri-Township | Change Station
CLOSE
Current Station
Airport
Location: Savanna,
Elevation: 617 ft
Nearby Weather Stations

Elev 617 ft 42.05 °N, 90.11 °W | Updated 10 minutes ago

Overcast
Overcast
34 °F
Feels Like 29 °F
N
6
Wind Variable Wind from SSE

Today
High -- | Low -- °F
--% Chance of Precip.
Yesterday
High -- | Low -- °F
Precip. -- in
7:25 AM 4:31 PM
Waning Crescent, 0% visible
Pressure 30.14 in
Visibility 4.0 miles
Clouds Scattered Clouds 900 ft
Overcast 3700 ft
Windchill 29 °F
Dew Point 32 °F
Humidity 93%
Rainfall 0.00 in
Snow Depth Not available.
UV 0 out of 12
Pollen .10 out of 12
Air Quality Not available.
Flu Activity Not available.
METAR KSFY 211215Z AUTO 15005KT 4SM BR SCT009 OVC037 01/00 A3014 RMK AO2 T00100000

More Conditions Fewer Conditions

Pressure 30.14 in
Visibility 4.0 miles
Clouds Scattered Clouds 900 ft
Overcast 3700 ft
Windchill 29 °F
Dew Point 32 °F
Humidity 93%
Rainfall 0.00 in
Snow Depth Not available.
UV 0 out of 12
Pollen .10 out of 12
Air Quality Not available.
Flu Activity Not available.
METAR KSFY 211215Z AUTO 15005KT 4SM BR SCT009 OVC037 01/00 A3014 RMK AO2 T00100000

More Conditions Fewer Conditions

10-Day Weather Forecast

Almanac

Astronomy

Dec. 21, 2014 Rise Set
Actual Time
Civil Twilight
Nautical Twilight
Astronomical Twilight
Moon
Length of Visible Light
Length of Day
Tomorrow will be .
, % of the Moon is Illuminated

Today's Extremes

State Highs State Lows

Community

WunderPhotos

Upload Photos

1,779,372 photos uploaded!

WunderBlogs® & News

Nearby

Air Quality

  Air Quality AQ Index Pollutant
Not available.

Snow Depth

Station Depth Elevation

Earthquake Activity

City Distance Mag. Time & Date
Minimum magnitude displayed is 2.5.

Coastal Water Temperatures

Place Temperature

Nearby Weather Stations